sensor_id;sensor_type;location;lat;lon;timestamp;pressure;altitude;pressure_sealevel;temperature;humidity
61010;BME280;46897;55.340;86.082;2023-05-12T00:01:43;99575.03;;;4.65;74.49
61010;BME280;46897;55.340;86.082;2023-05-12T00:04:13;99636.97;;;4.99;74.17
61010;BME280;46897;55.340;86.082;2023-05-12T00:06:43;99601.34;;;4.62;74.42
61010;BME280;46897;55.340;86.082;2023-05-12T00:09:34;99644.69;;;5.04;74.91
61010;BME280;46897;55.340;86.082;2023-05-12T00:12:04;99639.63;;;4.98;74.04
61010;BME280;46897;55.340;86.082;2023-05-12T00:14:34;99597.44;;;4.77;73.95
61010;BME280;46897;55.340;86.082;2023-05-12T00:19:51;99564.78;;;4.58;75.21
61010;BME280;46897;55.340;86.082;2023-05-12T00:22:21;99562.34;;;4.51;75.29
61010;BME280;46897;55.340;86.082;2023-05-12T00:24:51;99675.03;;;5.12;75.00
61010;BME280;46897;55.340;86.082;2023-05-12T00:27:20;99581.28;;;4.61;74.63
61010;BME280;46897;55.340;86.082;2023-05-12T00:30:07;99575.00;;;4.67;74.79
61010;BME280;46897;55.340;86.082;2023-05-12T00:35:43;99597.22;;;4.83;75.15
61010;BME280;46897;55.340;86.082;2023-05-12T00:38:14;99597.94;;;4.88;75.40
61010;BME280;46897;55.340;86.082;2023-05-12T00:43:31;99682.59;;;5.50;74.09
61010;BME280;46897;55.340;86.082;2023-05-12T00:46:17;99680.22;;;5.42;75.58
61010;BME280;46897;55.340;86.082;2023-05-12T00:48:48;99609.41;;;5.14;75.32
61010;BME280;46897;55.340;86.082;2023-05-12T00:51:17;99696.88;;;5.69;74.85
61010;BME280;46897;55.340;86.082;2023-05-12T00:54:05;99604.69;;;5.25;74.32
61010;BME280;46897;55.340;86.082;2023-05-12T00:56:52;99642.31;;;5.53;74.16
61010;BME280;46897;55.340;86.082;2023-05-12T00:59:21;99641.09;;;5.63;74.50
61010;BME280;46897;55.340;86.082;2023-05-12T01:02:08;99581.63;;;5.35;74.75
61010;BME280;46897;55.340;86.082;2023-05-12T01:04:54;99571.97;;;5.36;74.51
61010;BME280;46897;55.340;86.082;2023-05-12T01:07:24;99608.72;;;5.62;74.81
61010;BME280;46897;55.340;86.082;2023-05-12T01:09:56;99605.97;;;5.65;74.90
61010;BME280;46897;55.340;86.082;2023-05-12T01:12:26;99669.53;;;6.03;74.02
61010;BME280;46897;55.340;86.082;2023-05-12T01:14:56;99689.00;;;6.23;75.34
61010;BME280;46897;55.340;86.082;2023-05-12T01:17:28;99624.16;;;5.98;74.08
61010;BME280;46897;55.340;86.082;2023-05-12T01:20:17;99714.81;;;6.62;74.31
61010;BME280;46897;55.340;86.082;2023-05-12T01:22:48;99652.78;;;6.31;73.47
61010;BME280;46897;55.340;86.082;2023-05-12T01:25:22;99625.84;;;6.26;73.94
61010;BME280;46897;55.340;86.082;2023-05-12T01:28:10;99679.50;;;6.69;73.34
61010;BME280;46897;55.340;86.082;2023-05-12T01:30:40;99707.28;;;6.76;73.31
61010;BME280;46897;55.340;86.082;2023-05-12T01:33:10;99684.00;;;6.65;73.99
61010;BME280;46897;55.340;86.082;2023-05-12T01:35:56;99692.88;;;6.86;74.35
61010;BME280;46897;55.340;86.082;2023-05-12T01:38:26;99709.44;;;7.12;73.74
61010;BME280;46897;55.340;86.082;2023-05-12T01:40:55;99641.91;;;6.65;73.45
61010;BME280;46897;55.340;86.082;2023-05-12T01:43:26;99690.72;;;6.98;73.36
61010;BME280;46897;55.340;86.082;2023-05-12T01:45:56;99705.88;;;7.15;72.69
61010;BME280;46897;55.340;86.082;2023-05-12T01:48:25;99690.94;;;7.15;72.82
61010;BME280;46897;55.340;86.082;2023-05-12T01:50:54;99737.00;;;7.49;73.88
61010;BME280;46897;55.340;86.082;2023-05-12T01:56:11;99672.16;;;7.24;72.54
61010;BME280;46897;55.340;86.082;2023-05-12T01:58:42;99665.94;;;7.25;72.46
61010;BME280;46897;55.340;86.082;2023-05-12T02:01:11;99600.63;;;6.91;72.48
61010;BME280;46897;55.340;86.082;2023-05-12T02:03:41;99734.38;;;7.71;72.62
61010;BME280;46897;55.340;86.082;2023-05-12T02:06:10;99602.34;;;6.92;71.81
61010;BME280;46897;55.340;86.082;2023-05-12T02:08:39;99757.59;;;8.05;71.71
61010;BME280;46897;55.340;86.082;2023-05-12T02:11:09;99655.94;;;7.57;71.46
61010;BME280;46897;55.340;86.082;2023-05-12T02:13:38;99741.84;;;8.04;71.53
61010;BME280;46897;55.340;86.082;2023-05-12T02:16:26;99768.06;;;8.29;71.82
61010;BME280;46897;55.340;86.082;2023-05-12T02:18:55;99700.59;;;8.03;71.21
61010;BME280;46897;55.340;86.082;2023-05-12T02:21:25;99684.03;;;7.99;71.44
61010;BME280;46897;55.340;86.082;2023-05-12T02:23:54;99695.25;;;8.04;71.47
61010;BME280;46897;55.340;86.082;2023-05-12T02:26:24;99728.25;;;8.35;71.32
